createdAt,value
2023-01-11T00:00:46.703Z,65.22
2023-01-11T00:03:17.504Z,65.81
2023-01-11T00:05:46.438Z,65.70
2023-01-11T00:08:15.058Z,66.33
2023-01-11T00:10:43.360Z,66.37
2023-01-11T00:13:11.672Z,65.97
2023-01-11T00:15:40.751Z,66.07
2023-01-11T00:18:09.136Z,65.95
2023-01-11T00:20:40.271Z,66.23
2023-01-11T00:23:09.245Z,66.38
2023-01-11T00:25:38.323Z,66.41
2023-01-11T00:28:07.398Z,66.67
2023-01-11T00:30:36.772Z,66.47
2023-01-11T00:33:05.541Z,66.42
2023-01-11T00:35:34.011Z,66.51
2023-01-11T00:38:03.811Z,66.34
2023-01-11T00:40:32.121Z,66.37
2023-01-11T00:43:17.801Z,66.44
2023-01-11T00:46:15.042Z,66.83
2023-01-11T00:48:43.421Z,66.79
2023-01-11T00:51:11.805Z,67.28
2023-01-11T00:53:41.551Z,66.44
2023-01-11T00:56:09.921Z,66.32
2023-01-11T00:58:38.372Z,66.87
2023-01-11T01:01:10.232Z,66.59
2023-01-11T01:03:38.546Z,66.23
2023-01-11T01:06:07.251Z,66.25
2023-01-11T01:08:35.747Z,66.20
2023-01-11T01:11:05.497Z,65.78
2023-01-11T01:13:51.162Z,66.07
2023-01-11T01:16:20.007Z,65.93
2023-01-11T01:18:48.457Z,65.88
2023-01-11T01:21:16.839Z,66.43
2023-01-11T01:23:45.178Z,66.59
2023-01-11T01:26:14.931Z,67.26
2023-01-11T01:28:43.348Z,67.12
2023-01-11T01:31:11.795Z,67.48
2023-01-11T01:33:40.449Z,67.63
2023-01-11T01:36:09.472Z,66.98
2023-01-11T01:38:37.860Z,67.50
2023-01-11T01:41:06.557Z,67.20
2023-01-11T01:43:51.518Z,66.65
2023-01-11T01:46:21.714Z,66.40
2023-01-11T01:48:57.064Z,66.62
2023-01-11T01:51:29.329Z,66.52
2023-01-11T01:54:03.134Z,65.93
2023-01-11T01:56:35.815Z,66.24
2023-01-11T01:59:12.852Z,65.94
2023-01-11T02:01:50.131Z,66.70
2023-01-11T02:04:24.683Z,66.43
2023-01-11T02:06:58.148Z,67.02
2023-01-11T02:09:31.574Z,67.07
2023-01-11T02:12:01.402Z,67.34
2023-01-11T02:14:33.219Z,67.92
2023-01-11T02:17:01.715Z,68.09
2023-01-11T02:19:52.685Z,67.91
2023-01-11T02:22:53.421Z,67.29
2023-01-11T02:26:00.499Z,67.30
2023-01-11T02:28:35.785Z,67.12
2023-01-11T02:31:12.882Z,67.13
2023-01-11T02:33:49.666Z,67.53
2023-01-11T02:36:29.248Z,67.21
2023-01-11T02:39:04.659Z,67.00
2023-01-11T02:41:56.078Z,67.47
2023-01-11T02:44:49.580Z,67.06
2023-01-11T02:47:23.404Z,67.80
2023-01-11T02:50:04.488Z,67.80
2023-01-11T02:52:40.149Z,67.86
2023-01-11T02:55:11.922Z,68.53
2023-01-11T02:57:42.858Z,67.64
2023-01-11T03:00:14.550Z,68.68
2023-01-11T03:02:42.949Z,68.31
2023-01-11T03:05:15.063Z,69.11
2023-01-11T03:07:58.891Z,68.76
2023-01-11T03:10:40.824Z,69.19
2023-01-11T03:13:20.396Z,69.65
2023-01-11T03:16:11.222Z,69.74
2023-01-11T03:18:50.008Z,68.82
2023-01-11T03:21:43.042Z,69.52
2023-01-11T03:24:18.828Z,69.99
2023-01-11T03:26:58.062Z,69.64
2023-01-11T03:29:32.939Z,69.82
2023-01-11T03:32:21.620Z,69.77
2023-01-11T03:34:59.133Z,68.53
2023-01-11T03:37:32.723Z,69.20
2023-01-11T03:40:08.216Z,69.83
2023-01-11T03:43:00.476Z,70.15
2023-01-11T03:45:32.223Z,71.18
2023-01-11T03:48:04.398Z,70.74
2023-01-11T03:50:35.401Z,71.01
2023-01-11T03:53:07.405Z,70.68
2023-01-11T03:55:39.830Z,70.75
2023-01-11T03:58:09.294Z,70.70
2023-01-11T04:00:38.947Z,69.46
2023-01-11T04:03:09.842Z,69.78
2023-01-11T04:05:40.025Z,70.13
2023-01-11T04:08:08.333Z,70.52
2023-01-11T04:10:36.705Z,69.84
2023-01-11T04:13:05.398Z,70.54
2023-01-11T04:15:34.966Z,70.38
2023-01-11T04:18:05.289Z,70.48
2023-01-11T04:20:37.314Z,70.30
2023-01-11T04:23:06.589Z,70.08
2023-01-11T04:25:35.613Z,70.50
2023-01-11T04:28:04.016Z,70.37
2023-01-11T04:30:32.293Z,69.92
2023-01-11T04:33:00.731Z,68.95
2023-01-11T04:35:29.071Z,69.51
2023-01-11T04:37:59.379Z,69.76
2023-01-11T04:40:27.637Z,69.55
2023-01-11T04:42:54.911Z,69.66
2023-01-11T04:45:23.317Z,70.40
2023-01-11T04:47:56.389Z,69.94
2023-01-11T04:50:25.171Z,69.99
2023-01-11T04:52:53.921Z,70.84
2023-01-11T04:55:23.728Z,71.48
2023-01-11T04:57:52.043Z,71.70
2023-01-11T05:00:20.933Z,71.53
2023-01-11T05:02:49.264Z,71.18
2023-01-11T05:05:17.536Z,71.38
2023-01-11T05:07:45.919Z,71.41
2023-01-11T05:10:14.263Z,71.40
2023-01-11T05:12:44.017Z,71.30
2023-01-11T05:15:12.848Z,70.50
2023-01-11T05:17:41.192Z,70.48
2023-01-11T05:20:11.248Z,70.77
2023-01-11T05:22:39.591Z,70.94
2023-01-11T05:25:08.991Z,70.56
2023-01-11T05:27:37.293Z,70.90
2023-01-11T05:30:08.520Z,71.05
2023-01-11T05:32:36.844Z,71.51
2023-01-11T05:35:05.356Z,71.07
2023-01-11T05:37:33.772Z,71.21
2023-01-11T05:40:02.469Z,70.43
2023-01-11T05:42:30.875Z,71.49
2023-01-11T05:45:16.415Z,72.04
2023-01-11T05:47:46.154Z,72.75
2023-01-11T05:50:14.539Z,73.20
2023-01-11T05:52:42.777Z,73.10
2023-01-11T05:55:11.787Z,72.96
2023-01-11T05:57:42.688Z,71.92
2023-01-11T06:00:12.883Z,70.50
2023-01-11T06:02:41.369Z,71.05
2023-01-11T06:05:11.850Z,71.65
2023-01-11T06:07:40.275Z,71.20
2023-01-11T06:10:10.063Z,71.45
2023-01-11T06:12:39.121Z,71.90
2023-01-11T06:15:09.087Z,71.38
2023-01-11T06:17:37.413Z,70.97
2023-01-11T06:20:06.837Z,71.13
2023-01-11T06:22:36.633Z,72.08
2023-01-11T06:25:05.338Z,72.57
2023-01-11T06:27:33.643Z,72.30
2023-01-11T06:30:01.960Z,72.18
2023-01-11T06:32:30.899Z,71.99
2023-01-11T06:34:59.222Z,71.91
2023-01-11T06:37:27.575Z,71.84
2023-01-11T06:39:57.305Z,72.19
2023-01-11T06:42:25.996Z,71.66
2023-01-11T06:44:54.314Z,72.11
2023-01-11T06:47:22.757Z,72.06
2023-01-11T06:49:51.058Z,72.83
2023-01-11T06:52:19.426Z,73.41
2023-01-11T06:54:47.801Z,72.59
2023-01-11T06:57:17.900Z,72.69
2023-01-11T06:59:46.243Z,73.35
2023-01-11T07:02:14.657Z,73.18
2023-01-11T07:04:42.996Z,72.50
2023-01-11T07:07:11.288Z,72.62
2023-01-11T07:09:39.787Z,72.63
2023-01-11T07:12:08.115Z,72.92
2023-01-11T07:14:37.924Z,72.99
2023-01-11T07:17:06.261Z,72.95
2023-01-11T07:19:34.594Z,73.27
2023-01-11T07:22:02.995Z,73.01
2023-01-11T07:24:31.316Z,73.24
2023-01-11T07:27:01.405Z,72.82
2023-01-11T07:29:30.017Z,73.11
2023-01-11T07:32:00.121Z,72.53
2023-01-11T07:34:28.538Z,72.58
2023-01-11T07:36:56.971Z,72.26
2023-01-11T07:39:38.469Z,72.64
2023-01-11T07:42:30.042Z,72.53
2023-01-11T07:44:58.343Z,72.85
2023-01-11T07:47:28.221Z,72.89
2023-01-11T07:49:56.535Z,72.28
2023-01-11T07:52:24.923Z,72.62
2023-01-11T07:54:53.419Z,72.83
2023-01-11T07:57:21.758Z,72.75
2023-01-11T07:59:50.113Z,72.29
2023-01-11T08:02:18.466Z,72.65
2023-01-11T08:04:48.325Z,71.89
2023-01-11T08:07:16.679Z,72.35
2023-01-11T08:09:45.055Z,72.54
2023-01-11T08:12:30.289Z,72.91
2023-01-11T08:14:58.719Z,72.37
2023-01-11T08:17:27.245Z,71.62
2023-01-11T08:19:57.170Z,71.43
2023-01-11T08:22:25.566Z,70.60
2023-01-11T08:24:53.980Z,70.47
2023-01-11T08:27:22.332Z,71.21
2023-01-11T08:29:50.781Z,71.34
2023-01-11T08:32:19.155Z,71.33
2023-01-11T08:34:48.076Z,71.20
2023-01-11T08:37:18.035Z,72.14
2023-01-11T08:39:46.409Z,72.52
2023-01-11T08:42:14.687Z,72.61
2023-01-11T08:44:43.112Z,71.90
2023-01-11T08:47:11.484Z,72.33
2023-01-11T08:49:42.973Z,73.08
2023-01-11T08:52:14.841Z,73.14
2023-01-11T08:54:45.033Z,73.21
2023-01-11T08:57:13.510Z,73.02
2023-01-11T08:59:41.864Z,73.42
2023-01-11T09:02:13.356Z,72.91
2023-01-11T09:04:42.837Z,73.24
2023-01-11T09:07:11.374Z,73.17
2023-01-11T09:09:39.789Z,72.72
2023-01-11T09:12:09.845Z,72.89
2023-01-11T09:14:38.121Z,71.43
2023-01-11T09:17:06.629Z,72.00
2023-01-11T09:19:34.995Z,70.97
2023-01-11T09:22:03.536Z,71.75
2023-01-11T09:24:32.095Z,71.11
2023-01-11T09:27:01.088Z,70.98
2023-01-11T09:29:31.018Z,71.07
2023-01-11T09:31:59.433Z,70.80
2023-01-11T09:34:27.925Z,71.98
2023-01-11T09:37:00.106Z,72.50
2023-01-11T09:39:28.997Z,72.20
2023-01-11T09:42:29.615Z,72.30
2023-01-11T09:45:05.539Z,70.96
2023-01-11T09:47:41.054Z,72.22
2023-01-11T09:50:16.497Z,72.64
2023-01-11T09:52:47.625Z,73.26
2023-01-11T09:55:23.168Z,72.15
2023-01-11T09:58:01.358Z,72.21
2023-01-11T10:00:37.296Z,72.90
2023-01-11T10:03:26.110Z,72.37
2023-01-11T10:06:09.216Z,72.93
2023-01-11T10:18:31.654Z,72.74
2023-01-11T10:18:42.845Z,73.34
2023-01-11T10:20:55.269Z,73.32
2023-01-11T10:23:29.143Z,73.53
2023-01-11T10:26:01.974Z,73.34
2023-01-11T10:28:39.836Z,73.59
2023-01-11T10:31:29.989Z,73.47
2023-01-11T10:34:18.698Z,73.30
2023-01-11T10:37:11.055Z,73.61
2023-01-11T10:40:04.178Z,73.46
2023-01-11T10:42:43.773Z,73.22
2023-01-11T10:45:18.596Z,72.51
2023-01-11T10:47:58.532Z,72.56
2023-01-11T10:50:33.761Z,72.90
2023-01-11T10:53:15.299Z,72.76
2023-01-11T10:55:48.497Z,72.91
2023-01-11T10:58:32.808Z,72.56
2023-01-11T11:01:13.323Z,73.02
2023-01-11T11:04:00.981Z,72.58
2023-01-11T11:06:39.591Z,72.37
2023-01-11T11:09:17.778Z,72.49
2023-01-11T11:11:53.362Z,72.34
2023-01-11T11:14:29.149Z,72.20
2023-01-11T11:17:06.731Z,72.15
2023-01-11T11:19:35.396Z,72.43
2023-01-11T11:22:05.124Z,72.20
2023-01-11T11:24:38.363Z,72.25
2023-01-11T11:27:15.899Z,72.04
2023-01-11T11:29:50.668Z,72.17
2023-01-11T11:32:24.626Z,71.97
2023-01-11T11:34:54.172Z,71.89
2023-01-11T11:37:26.781Z,71.98
2023-01-11T11:39:56.480Z,71.63
2023-01-11T11:42:25.826Z,71.45
2023-01-11T11:45:16.220Z,71.37
2023-01-11T11:47:45.299Z,71.62
2023-01-11T11:50:43.784Z,71.63
2023-01-11T11:53:23.814Z,71.69
2023-01-11T11:55:53.942Z,71.86
2023-01-11T11:58:25.437Z,70.91
2023-01-11T12:00:54.625Z,71.21
2023-01-11T12:03:28.223Z,70.28
2023-01-11T12:05:58.782Z,70.67
2023-01-11T12:08:29.910Z,71.15
2023-01-11T12:11:01.235Z,70.75
2023-01-11T12:13:32.610Z,70.94
2023-01-11T12:16:03.137Z,70.89
2023-01-11T12:18:34.138Z,71.13
2023-01-11T12:21:18.280Z,70.89
2023-01-11T12:23:48.103Z,70.99
2023-01-11T12:26:23.209Z,70.56
2023-01-11T12:29:31.069Z,70.88
2023-01-11T12:32:12.590Z,70.57
2023-01-11T12:34:55.975Z,70.92
2023-01-11T12:37:40.367Z,70.99
2023-01-11T12:40:19.105Z,71.12
2023-01-11T12:43:03.984Z,70.93
2023-01-11T12:45:43.540Z,70.90
2023-01-11T12:48:33.634Z,71.25
2023-01-11T12:51:14.200Z,70.96
2023-01-11T12:53:57.637Z,69.88
2023-01-11T12:56:48.956Z,69.93
2023-01-11T12:59:34.849Z,69.37
2023-01-11T13:02:20.946Z,70.27
2023-01-11T13:05:00.188Z,70.70
2023-01-11T13:07:47.265Z,70.37
2023-01-11T13:10:32.107Z,70.82
2023-01-11T13:13:08.639Z,70.67
2023-01-11T13:15:46.977Z,70.58
2023-01-11T13:18:24.589Z,71.03
2023-01-11T13:21:02.511Z,71.13
2023-01-11T13:23:40.401Z,71.51
2023-01-11T13:26:18.479Z,71.63
2023-01-11T13:28:52.797Z,71.74
2023-01-11T13:31:21.593Z,71.67
2023-01-11T13:33:56.497Z,71.37
2023-01-11T13:36:30.996Z,70.88
2023-01-11T13:39:04.544Z,70.93
2023-01-11T13:41:36.614Z,70.74
2023-01-11T13:44:13.058Z,70.68
2023-01-11T13:46:56.586Z,71.07
2023-01-11T13:49:40.813Z,71.20
2023-01-11T13:52:14.864Z,71.17
2023-01-11T13:54:53.279Z,71.23
2023-01-11T13:57:28.667Z,71.09
2023-01-11T14:00:04.888Z,70.99
2023-01-11T14:02:41.347Z,71.05
2023-01-11T14:05:16.863Z,70.86
2023-01-11T14:08:05.241Z,70.87
2023-01-11T14:10:50.929Z,70.90
2023-01-11T14:14:16.724Z,70.91
2023-01-11T14:17:01.325Z,70.79
2023-01-11T14:19:35.779Z,70.92
2023-01-11T14:22:15.131Z,70.76
2023-01-11T14:24:54.352Z,70.95
2023-01-11T14:27:52.191Z,70.71
2023-01-11T14:30:55.022Z,70.71
2023-01-11T14:33:59.475Z,70.75
2023-01-11T14:36:52.528Z,70.59
2023-01-11T14:39:49.702Z,70.32
2023-01-11T14:43:03.940Z,70.49
2023-01-11T14:45:48.418Z,70.68
2023-01-11T14:48:29.056Z,70.41
2023-01-11T14:51:28.112Z,70.41
2023-01-11T14:54:04.873Z,70.54
2023-01-11T14:56:53.864Z,70.31
2023-01-11T14:59:34.360Z,70.42
2023-01-11T15:02:27.657Z,70.21
2023-01-11T15:05:17.510Z,70.14
2023-01-11T15:07:51.928Z,70.43
2023-01-11T15:10:48.357Z,70.26
2023-01-11T15:13:21.118Z,69.14
2023-01-11T15:16:07.429Z,68.92
2023-01-11T15:18:44.870Z,69.26
2023-01-11T15:21:18.729Z,69.63
2023-01-11T15:23:55.044Z,69.48
2023-01-11T15:26:25.096Z,69.59
2023-01-11T15:28:55.616Z,69.04
2023-01-11T15:31:38.913Z,69.17
2023-01-11T15:34:29.033Z,69.62
2023-01-11T15:37:23.175Z,69.29
2023-01-11T15:39:58.509Z,69.41
2023-01-11T15:43:09.503Z,69.63
2023-01-11T15:46:17.692Z,69.70
2023-01-11T15:49:05.240Z,69.15
2023-01-11T15:52:00.659Z,68.91
2023-01-11T15:55:04.232Z,68.91
2023-01-11T15:58:13.965Z,69.15
2023-01-11T16:01:11.247Z,68.80
2023-01-11T16:03:59.602Z,68.82
2023-01-11T16:06:42.130Z,68.61
2023-01-11T16:09:26.052Z,68.28
2023-01-11T16:12:07.785Z,68.53
2023-01-11T16:15:14.824Z,68.33
2023-01-11T16:17:43.939Z,68.67
2023-01-11T16:20:23.791Z,68.34
2023-01-11T16:22:55.688Z,68.54
2023-01-11T16:25:27.110Z,68.73
2023-01-11T16:27:58.572Z,68.36
2023-01-11T16:30:28.094Z,68.42
2023-01-11T16:33:18.778Z,67.96
2023-01-11T16:35:47.142Z,67.68
2023-01-11T16:38:19.311Z,67.62
2023-01-11T16:40:51.053Z,67.70
2023-01-11T16:43:24.835Z,67.69
2023-01-11T16:45:54.200Z,67.61
2023-01-11T16:48:23.993Z,67.42
2023-01-11T16:51:02.487Z,66.00
2023-01-11T16:53:32.104Z,66.56
2023-01-11T16:56:05.688Z,66.75
2023-01-11T16:58:36.685Z,65.35
2023-01-11T17:01:07.526Z,65.50
2023-01-11T17:03:38.636Z,65.67
2023-01-11T17:06:19.812Z,65.81
2023-01-11T17:08:50.933Z,65.95
2023-01-11T17:11:25.603Z,65.81
2023-01-11T17:14:36.084Z,65.45
2023-01-11T17:17:07.143Z,65.85
2023-01-11T17:19:38.429Z,65.29
2023-01-11T17:22:10.133Z,64.93
2023-01-11T17:24:42.430Z,65.14
2023-01-11T17:27:20.260Z,65.09
2023-01-11T17:29:53.271Z,65.04
2023-01-11T17:32:25.654Z,64.77
2023-01-11T17:34:54.397Z,63.85
2023-01-11T17:37:23.842Z,63.33
2023-01-11T17:39:54.404Z,63.77
2023-01-11T17:42:41.062Z,64.08
2023-01-11T17:45:21.112Z,64.38
2023-01-11T17:47:52.468Z,64.19
2023-01-11T17:50:29.087Z,64.51
2023-01-11T17:53:06.816Z,64.94
2023-01-11T17:55:36.148Z,65.17
2023-01-11T17:58:18.970Z,64.44
2023-01-11T18:01:11.581Z,64.30
2023-01-11T18:03:44.719Z,64.85
2023-01-11T18:06:15.595Z,64.29
2023-01-11T18:08:49.359Z,64.94
2023-01-11T18:11:25.546Z,64.66
2023-01-11T18:13:55.454Z,65.22
2023-01-11T18:16:25.750Z,64.88
2023-01-11T18:18:55.368Z,64.34
2023-01-11T18:21:40.758Z,64.31
2023-01-11T18:24:39.975Z,64.41
2023-01-11T18:27:27.685Z,64.83
2023-01-11T18:29:58.042Z,63.78
2023-01-11T18:32:31.984Z,64.31
2023-01-11T18:35:00.655Z,64.48
2023-01-11T18:37:29.181Z,64.26
2023-01-11T18:39:59.675Z,64.22
2023-01-11T18:42:32.694Z,64.49
2023-01-11T18:45:01.337Z,64.46
2023-01-11T18:47:31.132Z,64.85
2023-01-11T18:49:59.681Z,64.88
2023-01-11T18:52:29.626Z,64.89
2023-01-11T18:54:58.902Z,65.15
2023-01-11T18:57:27.269Z,64.94
2023-01-11T18:59:55.980Z,65.33
2023-01-11T19:02:26.454Z,65.26
2023-01-11T19:04:57.490Z,65.47
2023-01-11T19:07:26.576Z,65.57
2023-01-11T19:09:56.098Z,65.57
2023-01-11T19:12:24.883Z,65.56
2023-01-11T19:14:53.389Z,65.82
2023-01-11T19:17:21.780Z,65.88
2023-01-11T19:19:50.304Z,65.82
2023-01-11T19:22:23.392Z,65.50
2023-01-11T19:24:56.183Z,65.51
2023-01-11T19:27:25.216Z,65.78
2023-01-11T19:29:58.213Z,65.73
2023-01-11T19:32:27.831Z,65.94
2023-01-11T19:34:58.748Z,65.51
2023-01-11T19:37:31.176Z,65.14
2023-01-11T19:40:00.661Z,65.71
2023-01-11T19:42:29.943Z,65.73
2023-01-11T19:44:58.296Z,64.98
2023-01-11T19:47:27.015Z,64.14
2023-01-11T19:49:59.117Z,64.33
2023-01-11T19:52:29.512Z,64.96
2023-01-11T19:54:58.234Z,64.90
2023-01-11T19:57:27.795Z,64.61
2023-01-11T19:59:56.222Z,64.84
2023-01-11T20:02:24.738Z,65.24
2023-01-11T20:04:53.304Z,65.42
2023-01-11T20:07:21.713Z,65.11
2023-01-11T20:09:53.523Z,65.15
2023-01-11T20:12:23.292Z,65.14
2023-01-11T20:14:57.584Z,64.97
2023-01-11T20:17:27.958Z,64.93
2023-01-11T20:19:57.846Z,64.70
2023-01-11T20:22:27.401Z,64.77
2023-01-11T20:24:57.373Z,64.58
2023-01-11T20:27:26.619Z,64.45
2023-01-11T20:29:55.559Z,64.52
2023-01-11T20:32:40.362Z,64.93
2023-01-11T20:35:11.991Z,64.70
2023-01-11T20:37:42.738Z,64.92
2023-01-11T20:40:14.511Z,64.61
2023-01-11T20:42:43.563Z,64.52
2023-01-11T20:45:13.771Z,64.87
2023-01-11T20:47:42.424Z,64.85
2023-01-11T20:50:11.805Z,64.22
2023-01-11T20:52:40.657Z,64.59
2023-01-11T20:55:10.584Z,64.77
2023-01-11T20:57:40.347Z,64.84
2023-01-11T21:02:39.950Z,64.69
2023-01-11T21:05:09.372Z,64.80
2023-01-11T21:07:37.864Z,64.40
2023-01-11T21:10:06.943Z,64.34
2023-01-11T21:12:35.342Z,64.03
2023-01-11T21:15:10.588Z,63.73
2023-01-11T21:17:39.148Z,64.07
2023-01-11T21:20:08.564Z,63.95
2023-01-11T21:22:36.861Z,64.35
2023-01-11T21:25:05.469Z,64.45
2023-01-11T21:27:34.062Z,64.53
2023-01-11T21:30:02.320Z,64.20
2023-01-11T21:32:32.367Z,64.81
2023-01-11T21:35:01.303Z,65.07
2023-01-11T21:37:30.260Z,64.98
2023-01-11T21:39:58.527Z,64.66
2023-01-11T21:42:27.041Z,64.60
2023-01-11T21:44:55.580Z,64.78
2023-01-11T21:47:24.358Z,64.62
2023-01-11T21:49:54.287Z,64.95
2023-01-11T21:52:22.663Z,64.76
2023-01-11T21:54:52.223Z,64.03
2023-01-11T21:57:20.600Z,64.16
2023-01-11T21:59:49.023Z,64.31
2023-01-11T22:02:17.460Z,64.29
2023-01-11T22:04:45.798Z,64.42
2023-01-11T22:07:15.555Z,64.14
2023-01-11T22:09:59.817Z,63.03
2023-01-11T22:12:32.358Z,63.69
2023-01-11T22:15:00.866Z,63.59
2023-01-11T22:17:31.133Z,64.03
2023-01-11T22:19:59.533Z,63.79
2023-01-11T22:22:29.499Z,63.93
2023-01-11T22:24:58.222Z,63.58
2023-01-11T22:27:26.589Z,63.77
2023-01-11T22:29:54.999Z,63.58
2023-01-11T22:32:23.320Z,63.58
2023-01-11T22:34:51.765Z,63.66
2023-01-11T22:37:20.585Z,63.37
2023-01-11T22:39:50.327Z,63.39
2023-01-11T22:42:18.666Z,63.72
2023-01-11T22:44:47.536Z,63.97
2023-01-11T22:47:15.965Z,63.93
2023-01-11T22:49:44.302Z,63.57
2023-01-11T22:52:12.685Z,63.40
2023-01-11T22:54:40.961Z,63.33
2023-01-11T22:57:10.736Z,63.58
2023-01-11T22:59:39.022Z,63.56
2023-01-11T23:02:07.336Z,62.38
2023-01-11T23:04:35.736Z,62.94
2023-01-11T23:07:03.991Z,63.20
2023-01-11T23:09:32.336Z,62.66
2023-01-11T23:12:18.086Z,62.79
2023-01-11T23:14:47.807Z,62.84
2023-01-11T23:17:16.160Z,62.98
2023-01-11T23:19:45.650Z,63.18
2023-01-11T23:22:17.235Z,63.62
2023-01-11T23:24:45.551Z,63.19
2023-01-11T23:27:13.955Z,62.95
2023-01-11T23:29:42.343Z,63.34
2023-01-11T23:32:12.170Z,62.70
2023-01-11T23:34:40.474Z,62.92
2023-01-11T23:37:09.049Z,62.97
2023-01-11T23:39:37.354Z,62.79
2023-01-11T23:42:23.152Z,62.59
2023-01-11T23:44:51.687Z,62.02
2023-01-11T23:47:25.075Z,61.28
2023-01-11T23:49:55.402Z,61.65
2023-01-11T23:52:25.833Z,62.34
2023-01-11T23:54:54.214Z,63.03
2023-01-11T23:57:23.572Z,62.85
2023-01-11T23:59:52.217Z,63.12
